createdAt,value
2023-02-24T00:03:05.956Z,98178.75
2023-02-24T00:08:13.696Z,98174.59
2023-02-24T00:13:22.452Z,98163.97
2023-02-24T00:18:27.541Z,98158.78
2023-02-24T00:23:35.927Z,98156.97
2023-02-24T00:28:41.123Z,98151.94
2023-02-24T00:33:47.676Z,98159.50
2023-02-24T00:38:59.358Z,98152.41
2023-02-24T00:44:08.644Z,98151.56
2023-02-24T00:49:17.430Z,98145.84
2023-02-24T00:54:28.185Z,98146.50
2023-02-24T00:59:33.428Z,98141.31
2023-02-24T01:04:40.312Z,98141.03
2023-02-24T01:09:48.058Z,98138.03
2023-02-24T01:14:55.860Z,98138.06
2023-02-24T01:20:15.888Z,98127.44
2023-02-24T01:25:23.712Z,98121.69
2023-02-24T01:30:28.736Z,98116.03
2023-02-24T01:35:35.613Z,98106.53
2023-02-24T01:40:43.358Z,98093.75
2023-02-24T01:45:51.824Z,98093.75
2023-02-24T01:50:56.806Z,98084.78
2023-02-24T01:56:06.998Z,98078.06
2023-02-24T02:01:14.684Z,98073.44
2023-02-24T02:06:20.577Z,98068.88
2023-02-24T02:11:28.309Z,98067.53
2023-02-24T02:16:57.386Z,98068.31
2023-02-24T02:22:11.244Z,98069.13
2023-02-24T02:27:47.931Z,98059.19
2023-02-24T02:33:21.657Z,98059.91
2023-02-24T02:38:35.348Z,98058.16
2023-02-24T02:43:45.581Z,98049.53
2023-02-24T02:48:55.551Z,98051.28
2023-02-24T02:54:08.485Z,98052.28
2023-02-24T02:59:17.245Z,98045.13
2023-02-24T03:04:25.324Z,98023.94
2023-02-24T03:09:38.469Z,98033.47
2023-02-24T03:14:51.149Z,98033.97
2023-02-24T03:20:15.127Z,98041.31
2023-02-24T03:25:28.735Z,98038.16
2023-02-24T03:30:43.074Z,98029.50
2023-02-24T03:35:51.514Z,98027.78
2023-02-24T03:41:00.113Z,98021.34
2023-02-24T03:46:09.614Z,98032.88
2023-02-24T03:51:19.698Z,98030.13
2023-02-24T03:56:43.370Z,98037.56
2023-02-24T04:01:59.282Z,98034.16
2023-02-24T04:07:17.927Z,98038.16
2023-02-24T04:12:31.099Z,98023.69
2023-02-24T04:17:47.633Z,98020.72
2023-02-24T04:22:59.761Z,98020.72
2023-02-24T04:28:11.340Z,98006.94
2023-02-24T04:33:19.931Z,97995.84
2023-02-24T04:38:27.526Z,97989.59
2023-02-24T04:43:35.959Z,97988.56
2023-02-24T04:48:41.070Z,97981.03
2023-02-24T04:53:46.865Z,97969.31
2023-02-24T04:58:54.420Z,97961.97
2023-02-24T05:04:00.404Z,97958.81
2023-02-24T05:09:14.204Z,97945.78
2023-02-24T05:14:25.082Z,97942.00
2023-02-24T05:19:42.459Z,97930.44
2023-02-24T05:24:48.133Z,97940.97
2023-02-24T05:29:57.296Z,97941.16
2023-02-24T05:35:02.194Z,97944.28
2023-02-24T05:40:13.461Z,97936.41
2023-02-24T05:45:21.896Z,97933.47
2023-02-24T05:50:26.950Z,97951.16
2023-02-24T05:55:33.264Z,97960.66
2023-02-24T06:00:46.016Z,97953.47
2023-02-24T06:05:59.353Z,97961.56
2023-02-24T06:11:04.343Z,97968.44
2023-02-24T06:16:13.294Z,97968.25
2023-02-24T06:21:18.731Z,97973.84
2023-02-24T06:26:23.907Z,97976.13
2023-02-24T06:31:31.472Z,97966.91
2023-02-24T06:36:37.026Z,97961.50
2023-02-24T06:41:42.731Z,97962.28
2023-02-24T06:46:50.489Z,97962.47
2023-02-24T06:51:55.718Z,97962.50
2023-02-24T06:57:03.356Z,97961.03
2023-02-24T07:02:13.736Z,97958.19
2023-02-24T07:07:19.614Z,97961.00
2023-02-24T07:12:26.667Z,97963.56
2023-02-24T07:17:37.004Z,97961.34
2023-02-24T07:22:46.229Z,97958.28
2023-02-24T07:27:53.426Z,97950.34
2023-02-24T07:33:01.628Z,97946.38
2023-02-24T07:38:06.714Z,97943.47
2023-02-24T07:43:12.482Z,97938.97
2023-02-24T07:48:21.339Z,97942.31
2023-02-24T07:53:27.723Z,97928.94
2023-02-24T07:58:34.501Z,97920.88
2023-02-24T08:03:42.434Z,97912.13
2023-02-24T08:09:16.819Z,97910.19
2023-02-24T08:14:23.702Z,97912.06
2023-02-24T08:19:39.687Z,97896.63
2023-02-24T08:24:45.541Z,97894.31
2023-02-24T08:30:03.258Z,97878.44
2023-02-24T08:35:15.492Z,97880.38
2023-02-24T08:40:38.205Z,97875.81
2023-02-24T08:45:48.900Z,97873.38
2023-02-24T08:50:57.950Z,97865.88
2023-02-24T08:56:09.768Z,97867.94
2023-02-24T09:01:24.592Z,97849.50
2023-02-24T09:06:44.304Z,97850.00
2023-02-24T09:11:50.904Z,97838.81
2023-02-24T09:17:06.571Z,97818.41
2023-02-24T09:22:31.519Z,97818.88
2023-02-24T09:27:42.376Z,97801.63
2023-02-24T09:32:47.997Z,97788.00
2023-02-24T09:37:57.055Z,97787.19
2023-02-24T09:43:11.054Z,97781.84
2023-02-24T09:48:24.442Z,97775.13
2023-02-24T09:53:41.692Z,97778.75
2023-02-24T09:58:53.251Z,97763.72
2023-02-24T10:04:14.864Z,97747.47
2023-02-24T10:09:34.621Z,97746.81
2023-02-24T10:14:51.596Z,97731.13
2023-02-24T10:20:02.853Z,97716.19
2023-02-24T10:25:24.250Z,97702.00
2023-02-24T10:30:47.409Z,97695.47
2023-02-24T10:35:54.633Z,97677.69
2023-02-24T10:46:42.879Z,97673.53
2023-02-24T10:51:55.796Z,97664.09
2023-02-24T10:57:18.813Z,97662.63
2023-02-24T11:02:30.193Z,97640.28
2023-02-24T11:07:53.947Z,97629.56
2023-02-24T11:13:16.346Z,97615.00
2023-02-24T11:18:26.757Z,97608.22
2023-02-24T11:23:39.110Z,97592.06
2023-02-24T11:29:06.921Z,97572.06
2023-02-24T11:34:19.981Z,97565.38
2023-02-24T11:39:57.358Z,97556.66
2023-02-24T11:45:15.402Z,97540.75
2023-02-24T11:50:44.097Z,97531.69
2023-02-24T11:56:00.891Z,97519.66
2023-02-24T12:01:16.228Z,97510.31
2023-02-24T12:06:28.856Z,97504.25
2023-02-24T12:11:44.177Z,97487.56
2023-02-24T12:16:59.226Z,97482.91
2023-02-24T12:22:13.054Z,97458.00
2023-02-24T12:27:28.854Z,97446.06
2023-02-24T12:32:54.326Z,97449.59
2023-02-24T12:38:16.952Z,97439.81
2023-02-24T12:43:32.892Z,97436.84
2023-02-24T12:49:09.690Z,97429.97
2023-02-24T12:54:23.998Z,97413.38
2023-02-24T12:59:32.843Z,97408.13
2023-02-24T13:04:54.198Z,97397.19
2023-02-24T13:10:12.496Z,97388.38
2023-02-24T13:15:25.691Z,97380.25
2023-02-24T13:20:38.322Z,97362.81
2023-02-24T13:25:43.968Z,97353.63
2023-02-24T13:30:49.969Z,97346.75
2023-02-24T13:36:12.569Z,97344.50
2023-02-24T13:41:40.856Z,97333.34
2023-02-24T13:47:08.390Z,97316.91
2023-02-24T13:52:30.507Z,97321.59
2023-02-24T13:57:50.040Z,97306.91
2023-02-24T14:02:55.793Z,97302.16
2023-02-24T14:08:06.238Z,97295.63
2023-02-24T14:13:27.916Z,97279.47
2023-02-24T14:18:33.555Z,97280.03
2023-02-24T14:23:43.101Z,97292.19
2023-02-24T14:28:56.853Z,97278.94
2023-02-24T14:34:04.331Z,97269.09
2023-02-24T14:39:20.838Z,97268.97
2023-02-24T14:44:28.529Z,97257.84
2023-02-24T14:49:37.703Z,97249.34
2023-02-24T14:54:57.003Z,97245.81
2023-02-24T15:00:11.114Z,97230.38
2023-02-24T15:05:17.176Z,97230.22
2023-02-24T15:10:28.659Z,97212.72
2023-02-24T15:15:46.237Z,97212.72
2023-02-24T15:20:51.205Z,97212.06
2023-02-24T15:25:59.142Z,97202.56
2023-02-24T15:31:10.890Z,97190.94
2023-02-24T15:36:24.201Z,97180.97
2023-02-24T15:41:41.287Z,97178.53
2023-02-24T15:46:46.937Z,97180.84
2023-02-24T15:51:56.272Z,97184.41
2023-02-24T15:57:06.295Z,97183.75
2023-02-24T16:02:17.433Z,97172.59
2023-02-24T16:07:26.254Z,97168.91
2023-02-24T16:12:39.624Z,97175.84
2023-02-24T16:17:45.575Z,97174.03
2023-02-24T16:22:50.627Z,97164.31
2023-02-24T16:27:59.983Z,97159.00
2023-02-24T16:33:04.974Z,97154.44
2023-02-24T16:38:15.906Z,97149.84
2023-02-24T16:43:24.737Z,97156.06
2023-02-24T16:48:34.642Z,97159.34
2023-02-24T16:53:40.871Z,97156.41
2023-02-24T16:58:48.498Z,97138.91
2023-02-24T17:03:56.995Z,97151.31
2023-02-24T17:09:02.323Z,97153.75
2023-02-24T17:14:10.928Z,97142.91
2023-02-24T17:19:17.123Z,97147.19
2023-02-24T17:24:23.612Z,97133.69
2023-02-24T17:29:31.531Z,97130.63
2023-02-24T17:34:36.442Z,97124.09
2023-02-24T17:39:42.824Z,97128.28
2023-02-24T17:44:50.599Z,97119.53
2023-02-24T17:49:55.754Z,97113.56
2023-02-24T17:55:01.947Z,97098.13
2023-02-24T18:00:14.910Z,97095.22
2023-02-24T18:05:20.049Z,97090.75
2023-02-24T18:10:26.254Z,97095.91
2023-02-24T18:15:34.034Z,97079.16
2023-02-24T18:20:39.124Z,97079.28
2023-02-24T18:25:44.296Z,97074.50
2023-02-24T18:30:51.942Z,97075.69
2023-02-24T18:36:01.377Z,97068.41
2023-02-24T18:41:08.857Z,97058.72
2023-02-24T18:46:18.694Z,97063.41
2023-02-24T18:51:26.293Z,97054.47
2023-02-24T18:56:33.327Z,97054.38
2023-02-24T19:01:42.595Z,97053.25
2023-02-24T19:06:49.204Z,97050.63
2023-02-24T19:11:54.314Z,97051.69
2023-02-24T19:17:04.509Z,97044.75
2023-02-24T19:22:09.552Z,97044.19
2023-02-24T19:27:14.675Z,97030.69
2023-02-24T19:32:23.275Z,97027.25
2023-02-24T19:37:31.863Z,97022.97
2023-02-24T19:42:36.881Z,97020.88
2023-02-24T19:47:44.495Z,97018.31
2023-02-24T19:52:49.453Z,97005.47
2023-02-24T19:57:56.882Z,96998.84
2023-02-24T20:03:04.578Z,96991.66
2023-02-24T20:08:10.077Z,96995.66
2023-02-24T20:13:16.666Z,96996.03
2023-02-24T20:18:24.366Z,96987.59
2023-02-24T20:23:30.036Z,96987.19
2023-02-24T20:28:35.696Z,96987.19
2023-02-24T20:33:45.773Z,96982.03
2023-02-24T20:38:58.596Z,96980.88
2023-02-24T20:44:07.219Z,96971.13
2023-02-24T20:49:17.720Z,96971.03
2023-02-24T20:54:24.035Z,96960.53
2023-02-24T20:59:29.011Z,96954.78
2023-02-24T21:04:38.576Z,96948.81
2023-02-24T21:09:43.788Z,96941.13
2023-02-24T21:14:51.308Z,96942.59
2023-02-24T21:20:02.109Z,96933.47
2023-02-24T21:25:07.580Z,96917.50
2023-02-24T21:30:14.146Z,96910.09
2023-02-24T21:35:21.836Z,96913.59
2023-02-24T21:40:26.963Z,96917.28
2023-02-24T21:45:35.750Z,96916.88
2023-02-24T21:50:45.510Z,96902.69
2023-02-24T21:55:52.710Z,96905.59
2023-02-24T22:00:57.690Z,96891.94
2023-02-24T22:06:05.588Z,96880.47
2023-02-24T22:11:12.994Z,96887.16
2023-02-24T22:16:20.199Z,96874.00
2023-02-24T22:21:31.009Z,96868.94
2023-02-24T22:26:36.285Z,96864.75
2023-02-24T22:31:43.933Z,96854.91
2023-02-24T22:36:51.774Z,96850.84
2023-02-24T22:41:58.768Z,96849.16
2023-02-24T22:47:03.973Z,96839.00
2023-02-24T22:52:13.403Z,96852.91
2023-02-24T22:57:18.742Z,96840.72
2023-02-24T23:02:23.684Z,96851.06
2023-02-24T23:07:33.811Z,96847.72
2023-02-24T23:12:38.979Z,96844.13
2023-02-24T23:17:53.109Z,96854.34
2023-02-24T23:23:01.865Z,96844.03
2023-02-24T23:28:10.356Z,96840.84
2023-02-24T23:33:15.401Z,96847.06
2023-02-24T23:38:23.612Z,96827.47
2023-02-24T23:43:30.462Z,96840.44
2023-02-24T23:48:35.897Z,96833.78
2023-02-24T23:53:45.410Z,96840.31
2023-02-24T23:58:53.582Z,96843.41
